Weather at Pruszcz Gdanski Air Base

Public forecast

Using degrees Celsius for public forecast. Weather courtesy of forecast.io.

Closest aviation weather report (METAR) to Pruszcz Gdanski Air Base

Closest report is Gdańsk Lech Wałęsa Airport, 10.6 nm (19.6 km) NW. Retrieved 2021/06/23 03:00 UTC (11 minutes ago):

EPGD 230300Z 26008KT 9999 FEW043 16/13 Q1016

Closest aviation forecast (TAF) to Pruszcz Gdanski Air Base

Closest forecast is Gdańsk Lech Wałęsa Airport, 10.6 nm (19.6 km) NW. Retrieved 2021-06-23 00:37 UTC (3 hours ago):

TAF EPGD 222330Z 2300/2324 29010KT CAVOK PROB40 TEMPO 2300/2305 -SHRA SCT030CB BECMG 2315/2318 VRB02KT